createdAt,value
2019-03-28T00:00:23.517Z,29.90
2019-03-28T00:01:23.537Z,25.50
2019-03-28T00:02:23.490Z,25.20
2019-03-28T00:03:23.483Z,25.10
2019-03-28T00:04:23.483Z,27.60
2019-03-28T00:05:23.480Z,28.30
2019-03-28T00:06:23.460Z,27.30
2019-03-28T00:07:24.330Z,28.70
2019-03-28T00:08:23.611Z,30.20
2019-03-28T00:09:23.467Z,31.00
2019-03-28T00:10:23.407Z,32.80
2019-03-28T00:11:24.172Z,34.40
2019-03-28T00:12:23.409Z,35.60
2019-03-28T00:13:23.376Z,37.30
2019-03-28T00:14:23.380Z,36.70
2019-03-28T00:15:23.401Z,38.60
2019-03-28T00:16:23.397Z,37.50
2019-03-28T00:17:23.332Z,36.40
2019-03-28T00:18:23.328Z,34.90
2019-03-28T00:19:23.327Z,35.00
2019-03-28T00:20:23.393Z,32.90
2019-03-28T00:21:23.355Z,33.20
2019-03-28T00:22:23.286Z,31.10
2019-03-28T00:23:23.268Z,30.30
2019-03-28T00:24:23.257Z,30.00
2019-03-28T00:25:23.246Z,32.00
2019-03-28T00:26:30.161Z,29.50
2019-03-28T00:27:24.273Z,31.20
2019-03-28T00:28:23.214Z,29.50
2019-03-28T00:29:23.228Z,31.80
2019-03-28T00:30:23.200Z,32.10
2019-03-28T00:31:23.184Z,31.50
2019-03-28T00:32:23.177Z,33.40
2019-03-28T00:33:23.192Z,31.70
2019-03-28T00:34:23.185Z,34.30
2019-03-28T00:35:23.192Z,33.80
2019-03-28T00:36:23.132Z,31.90
2019-03-28T00:37:23.120Z,35.10
2019-03-28T00:38:23.110Z,32.70
2019-03-28T00:39:23.104Z,31.70
2019-03-28T00:40:23.103Z,32.10
2019-03-28T00:41:23.112Z,31.80
2019-03-28T00:42:23.072Z,31.70
2019-03-28T00:43:23.059Z,31.70
2019-03-28T00:44:23.050Z,31.90
2019-03-28T00:45:23.035Z,32.20
2019-03-28T00:46:23.043Z,32.30
2019-03-28T00:47:23.046Z,33.70
2019-03-28T00:48:23.008Z,31.90
2019-03-28T00:49:22.998Z,32.50
2019-03-28T00:50:22.997Z,34.20
2019-03-28T00:51:22.987Z,32.20
2019-03-28T00:52:22.963Z,31.80
2019-03-28T00:53:22.988Z,32.40
2019-03-28T00:54:22.945Z,32.70
2019-03-28T00:55:22.954Z,33.10
2019-03-28T00:56:22.918Z,33.60
2019-03-28T00:57:22.911Z,33.80
2019-03-28T00:58:22.900Z,34.70
2019-03-28T00:59:22.922Z,32.90
2019-03-28T01:00:22.895Z,34.00
2019-03-28T01:01:22.872Z,34.10
2019-03-28T01:02:22.855Z,31.60
2019-03-28T01:03:22.845Z,32.60
2019-03-28T01:04:22.841Z,32.50
2019-03-28T01:05:22.859Z,31.50
2019-03-28T01:06:22.816Z,31.00
2019-03-28T01:07:22.806Z,32.20
2019-03-28T01:08:22.794Z,32.20
2019-03-28T01:09:22.781Z,33.70
2019-03-28T01:10:22.789Z,32.80
2019-03-28T01:11:22.805Z,35.90
2019-03-28T01:12:22.750Z,36.40
2019-03-28T01:13:22.742Z,35.40
2019-03-28T01:14:22.727Z,37.30
2019-03-28T01:15:23.293Z,37.40
2019-03-28T01:16:22.706Z,36.80
2019-03-28T01:17:22.756Z,38.90
2019-03-28T01:18:22.691Z,36.60
2019-03-28T01:19:22.676Z,38.70
2019-03-28T01:20:22.683Z,38.40
2019-03-28T01:21:22.653Z,37.70
2019-03-28T01:22:22.641Z,39.20
2019-03-28T01:23:22.683Z,37.30
2019-03-28T01:24:22.631Z,40.50
2019-03-28T01:25:22.617Z,38.50
2019-03-28T01:26:22.620Z,38.00
2019-03-28T01:27:22.590Z,41.30
2019-03-28T01:28:22.579Z,38.30
2019-03-28T01:29:22.589Z,39.20
2019-03-28T01:30:22.563Z,39.50
2019-03-28T01:31:22.545Z,40.00
2019-03-28T01:32:22.567Z,38.70
2019-03-28T01:33:22.526Z,37.50
2019-03-28T01:34:22.516Z,37.70
2019-03-28T01:35:23.217Z,39.40
2019-03-28T01:36:22.510Z,37.70
2019-03-28T01:37:22.483Z,36.70
2019-03-28T01:38:22.472Z,37.00
2019-03-28T01:39:22.469Z,34.60
2019-03-28T01:40:22.459Z,35.50
2019-03-28T01:41:22.582Z,35.70
2019-03-28T01:42:22.437Z,33.00
2019-03-28T01:43:22.419Z,34.20
2019-03-28T01:44:22.409Z,32.20
2019-03-28T01:45:22.397Z,34.10
2019-03-28T01:46:22.387Z,32.30
2019-03-28T01:47:22.419Z,31.90
2019-03-28T01:48:22.395Z,33.60
2019-03-28T01:49:22.362Z,30.60
2019-03-28T01:50:22.346Z,29.00
2019-03-28T01:51:22.358Z,29.70
2019-03-28T01:52:22.329Z,27.70
2019-03-28T01:53:22.320Z,30.30
2019-03-28T01:54:22.327Z,27.20
2019-03-28T01:55:22.313Z,27.00
2019-03-28T01:56:24.986Z,29.00
2019-03-28T01:57:22.272Z,28.20
2019-03-28T01:58:22.273Z,28.90
2019-03-28T01:59:22.254Z,27.50
2019-03-28T02:00:22.242Z,28.00
2019-03-28T02:01:22.298Z,27.40
2019-03-28T02:02:22.222Z,28.20
2019-03-28T02:03:22.211Z,29.70
2019-03-28T02:04:22.202Z,28.80
2019-03-28T02:05:22.188Z,29.70
2019-03-28T02:06:22.194Z,30.50
2019-03-28T02:07:22.203Z,30.40
2019-03-28T02:08:24.772Z,31.00
2019-03-28T02:09:22.145Z,30.90
2019-03-28T02:10:22.139Z,34.20
2019-03-28T02:11:22.142Z,34.70
2019-03-28T02:12:22.121Z,34.70
2019-03-28T02:13:22.278Z,34.60
2019-03-28T02:14:22.094Z,35.60
2019-03-28T02:15:22.085Z,35.90
2019-03-28T02:16:22.093Z,36.00
2019-03-28T02:17:22.063Z,36.10
2019-03-28T02:18:22.055Z,34.70
2019-03-28T02:19:22.065Z,36.40
2019-03-28T02:20:22.040Z,36.30
2019-03-28T02:21:22.039Z,36.30
2019-03-28T02:22:22.009Z,36.20
2019-03-28T02:23:21.997Z,35.30
2019-03-28T02:24:21.991Z,37.00
2019-03-28T02:25:21.992Z,35.10
2019-03-28T02:26:21.990Z,35.20
2019-03-28T02:27:24.203Z,36.60
2019-03-28T02:28:21.945Z,34.90
2019-03-28T02:29:21.938Z,36.70
2019-03-28T02:30:21.941Z,35.40
2019-03-28T02:31:21.948Z,35.80
2019-03-28T02:32:21.983Z,37.50
2019-03-28T02:33:21.900Z,35.60
2019-03-28T02:34:21.886Z,35.40
2019-03-28T02:35:21.876Z,36.60
2019-03-28T02:36:21.869Z,36.90
2019-03-28T02:37:21.932Z,38.60
2019-03-28T02:38:21.843Z,38.00
2019-03-28T02:39:21.832Z,36.70
2019-03-28T02:40:21.820Z,38.50
2019-03-28T02:41:21.810Z,38.00
2019-03-28T02:42:21.803Z,40.30
2019-03-28T02:43:21.846Z,38.40
2019-03-28T02:44:21.873Z,38.30
2019-03-28T02:45:21.772Z,40.40
2019-03-28T02:46:22.598Z,39.70
2019-03-28T02:47:21.771Z,39.80
2019-03-28T02:48:21.743Z,39.90
2019-03-28T02:49:21.734Z,38.70
2019-03-28T02:50:21.741Z,41.90
2019-03-28T02:51:21.715Z,40.40
2019-03-28T02:52:21.873Z,38.60
2019-03-28T02:53:21.688Z,41.20
2019-03-28T02:54:21.693Z,40.00
2019-03-28T02:55:21.668Z,38.70
2019-03-28T02:56:21.712Z,39.40
2019-03-28T02:57:21.667Z,36.90
2019-03-28T02:58:21.636Z,38.50
2019-03-28T02:59:21.619Z,38.30
2019-03-28T03:00:21.610Z,38.40
2019-03-28T03:01:21.611Z,37.70
2019-03-28T03:02:21.624Z,38.20
2019-03-28T03:03:21.604Z,37.60
2019-03-28T03:04:21.583Z,37.90
2019-03-28T03:05:21.569Z,35.80
2019-03-28T03:06:21.547Z,37.10
2019-03-28T03:07:21.535Z,36.40
2019-03-28T03:08:21.533Z,36.60
2019-03-28T03:09:21.536Z,37.10
2019-03-28T03:10:21.505Z,35.50
2019-03-28T03:11:21.506Z,38.30
2019-03-28T03:12:21.529Z,36.90
2019-03-28T03:13:21.519Z,38.50
2019-03-28T03:14:21.465Z,37.70
2019-03-28T03:15:21.456Z,37.00
2019-03-28T03:16:22.091Z,38.30
2019-03-28T03:17:21.449Z,39.10
2019-03-28T03:18:21.864Z,37.70
2019-03-28T03:19:21.438Z,39.90
2019-03-28T03:20:21.445Z,38.90
2019-03-28T03:21:21.394Z,38.80
2019-03-28T03:22:21.395Z,39.20
2019-03-28T03:23:21.375Z,38.20
2019-03-28T03:24:21.363Z,40.10
2019-03-28T03:25:21.374Z,38.80
2019-03-28T03:26:21.357Z,37.90
2019-03-28T03:27:21.346Z,40.30
2019-03-28T03:28:21.313Z,39.60
2019-03-28T03:29:21.304Z,40.20
2019-03-28T03:30:21.295Z,40.40
2019-03-28T03:31:22.199Z,38.10
2019-03-28T03:32:21.349Z,39.40
2019-03-28T03:33:21.263Z,40.80
2019-03-28T03:34:21.257Z,38.20
2019-03-28T03:35:21.243Z,38.80
2019-03-28T03:36:21.233Z,39.70
2019-03-28T03:37:21.259Z,40.50
2019-03-28T03:38:21.776Z,40.80
2019-03-28T03:39:21.250Z,39.00
2019-03-28T03:40:21.186Z,39.90
2019-03-28T03:41:21.177Z,39.00
2019-03-28T03:42:21.189Z,41.20
2019-03-28T03:43:21.162Z,38.80
2019-03-28T03:44:21.165Z,38.40
2019-03-28T03:45:21.195Z,39.80
2019-03-28T03:46:21.133Z,39.40
2019-03-28T03:47:21.132Z,37.80
2019-03-28T03:48:21.322Z,37.30
2019-03-28T03:49:21.096Z,37.00
2019-03-28T03:50:21.096Z,39.30
2019-03-28T03:51:21.094Z,37.90
2019-03-28T03:52:21.061Z,38.50
2019-03-28T03:53:21.068Z,38.00
2019-03-28T03:54:21.052Z,38.00
2019-03-28T03:55:21.032Z,39.50
2019-03-28T03:56:21.021Z,37.80
2019-03-28T03:57:21.046Z,38.60
2019-03-28T03:58:20.997Z,38.10
2019-03-28T03:59:21.014Z,37.70
2019-03-28T04:00:20.982Z,39.00
2019-03-28T04:01:20.979Z,38.50
2019-03-28T04:02:20.972Z,35.60
2019-03-28T04:03:20.958Z,37.00
2019-03-28T04:04:21.925Z,36.80
2019-03-28T04:05:20.923Z,37.90
2019-03-28T04:06:20.924Z,37.20
2019-03-28T04:07:20.925Z,37.00
2019-03-28T04:08:20.907Z,37.40
2019-03-28T04:09:20.937Z,36.90
2019-03-28T04:10:20.910Z,34.20
2019-03-28T04:11:20.863Z,37.30
2019-03-28T04:12:20.860Z,34.00
2019-03-28T04:13:20.867Z,35.50
2019-03-28T04:14:20.830Z,34.40
2019-03-28T04:15:20.836Z,35.50
2019-03-28T04:16:20.874Z,37.00
2019-03-28T04:17:21.666Z,35.00
2019-03-28T04:18:22.235Z,35.10
2019-03-28T04:19:20.795Z,36.70
2019-03-28T04:20:20.771Z,36.40
2019-03-28T04:21:20.764Z,36.90
2019-03-28T04:22:20.747Z,37.20
2019-03-28T04:23:20.765Z,36.10
2019-03-28T04:24:21.818Z,36.20
2019-03-28T04:25:20.737Z,36.20
2019-03-28T04:26:20.715Z,37.50
2019-03-28T04:27:21.075Z,37.60
2019-03-28T04:28:31.870Z,35.50
2019-03-28T04:29:21.704Z,35.90
2019-03-28T04:30:22.677Z,36.20
2019-03-28T04:31:20.672Z,35.10
2019-03-28T04:32:20.876Z,35.00
2019-03-28T04:33:20.632Z,33.90
2019-03-28T04:34:20.623Z,36.90
2019-03-28T04:35:20.630Z,34.80
2019-03-28T04:36:20.627Z,33.10
2019-03-28T04:37:20.616Z,34.30
2019-03-28T04:38:20.578Z,34.40
2019-03-28T04:39:20.577Z,34.60
2019-03-28T04:40:20.592Z,33.90
2019-03-28T04:41:20.548Z,32.70
2019-03-28T04:42:20.592Z,34.40
2019-03-28T04:43:20.544Z,31.90
2019-03-28T04:44:21.641Z,33.80
2019-03-28T04:45:20.506Z,35.20
2019-03-28T04:46:20.493Z,34.90
2019-03-28T04:47:20.489Z,35.40
2019-03-28T04:48:20.522Z,34.80
2019-03-28T04:49:20.464Z,34.30
2019-03-28T04:50:20.451Z,36.20
2019-03-28T04:51:20.661Z,35.00
2019-03-28T04:52:20.435Z,34.80
2019-03-28T04:53:20.439Z,36.20
2019-03-28T04:54:20.436Z,36.80
2019-03-28T04:55:21.322Z,34.40
2019-03-28T04:56:20.386Z,34.40
2019-03-28T04:57:20.376Z,34.80
2019-03-28T04:58:21.872Z,34.80
2019-03-28T04:59:20.356Z,34.60
2019-03-28T05:00:20.371Z,36.80
2019-03-28T05:01:20.347Z,36.30
2019-03-28T05:02:20.325Z,35.70
2019-03-28T05:03:20.313Z,36.60
2019-03-28T05:04:21.244Z,33.80
2019-03-28T05:05:20.291Z,34.80
2019-03-28T05:06:20.344Z,34.70
2019-03-28T05:07:20.271Z,33.50
2019-03-28T05:08:20.279Z,34.50
2019-03-28T05:09:20.257Z,34.30
2019-03-28T05:10:20.242Z,32.90
2019-03-28T05:11:20.231Z,33.10
2019-03-28T05:12:20.274Z,36.30
2019-03-28T05:13:20.353Z,33.50
2019-03-28T05:14:20.218Z,32.30
2019-03-28T05:15:20.581Z,32.60
2019-03-28T05:16:20.178Z,34.50
2019-03-28T05:17:20.165Z,33.60
2019-03-28T05:18:20.207Z,34.50
2019-03-28T05:19:20.164Z,32.50
2019-03-28T05:20:20.168Z,33.50
2019-03-28T05:21:20.151Z,33.90
2019-03-28T05:22:20.121Z,34.70
2019-03-28T05:23:20.122Z,36.80
2019-03-28T05:24:20.092Z,35.70
2019-03-28T05:25:20.086Z,35.20
2019-03-28T05:26:20.074Z,36.90
2019-03-28T05:27:20.108Z,34.90
2019-03-28T05:28:20.072Z,36.00
2019-03-28T05:29:20.050Z,35.00
2019-03-28T05:30:20.035Z,36.40
2019-03-28T05:31:20.026Z,36.20
2019-03-28T05:32:20.019Z,36.00
2019-03-28T05:33:20.064Z,36.40
2019-03-28T05:34:20.010Z,36.50
2019-03-28T05:35:19.979Z,35.30
2019-03-28T05:36:19.971Z,37.80
2019-03-28T05:37:19.958Z,36.70
2019-03-28T05:38:19.951Z,38.60
2019-03-28T05:39:19.967Z,37.60
2019-03-28T05:40:22.699Z,37.60
2019-03-28T05:41:19.918Z,38.90
2019-03-28T05:42:19.907Z,36.80
2019-03-28T05:43:19.894Z,38.80
2019-03-28T05:44:19.882Z,38.70
2019-03-28T05:45:19.915Z,39.50
2019-03-28T05:46:19.884Z,39.40
2019-03-28T05:47:22.131Z,37.60
2019-03-28T05:48:19.898Z,36.40
2019-03-28T05:49:19.847Z,37.30
2019-03-28T05:50:19.835Z,37.20
2019-03-28T05:51:19.858Z,37.30
2019-03-28T05:52:19.807Z,38.00
2019-03-28T05:53:20.528Z,37.40
2019-03-28T05:54:20.089Z,39.00
2019-03-28T05:55:19.770Z,37.30
2019-03-28T05:56:19.758Z,36.50
2019-03-28T05:57:19.792Z,38.00
2019-03-28T05:58:19.736Z,38.30
2019-03-28T05:59:19.729Z,37.80
2019-03-28T06:00:19.734Z,37.00
2019-03-28T06:01:19.706Z,36.00
2019-03-28T06:02:19.695Z,36.00
2019-03-28T06:03:19.701Z,36.70
2019-03-28T06:04:19.733Z,36.30
2019-03-28T06:05:19.679Z,36.80
2019-03-28T06:06:19.670Z,35.10
2019-03-28T06:07:19.645Z,36.10
2019-03-28T06:08:19.634Z,34.90
2019-03-28T06:09:19.638Z,36.00
2019-03-28T06:10:19.662Z,36.10
2019-03-28T06:11:19.600Z,33.40
2019-03-28T06:12:19.659Z,34.10
2019-03-28T06:13:19.582Z,34.40
2019-03-28T06:14:19.598Z,34.70
2019-03-28T06:15:19.602Z,34.00
2019-03-28T06:16:19.559Z,31.50
2019-03-28T06:17:19.554Z,33.60
2019-03-28T06:18:20.294Z,32.20
2019-03-28T06:19:19.516Z,32.90
2019-03-28T06:20:19.524Z,32.00
2019-03-28T06:21:19.500Z,34.90
2019-03-28T06:22:19.483Z,33.10
2019-03-28T06:23:19.474Z,40.20
2019-03-28T06:24:19.503Z,34.20
2019-03-28T06:25:19.460Z,37.00
2019-03-28T06:26:19.467Z,35.30
2019-03-28T06:27:19.433Z,34.80
2019-03-28T06:28:19.425Z,35.70
2019-03-28T06:29:24.026Z,34.90
2019-03-28T06:30:20.443Z,34.90
2019-03-28T06:31:19.390Z,33.00
2019-03-28T06:32:19.380Z,33.90
2019-03-28T06:33:19.367Z,34.10
2019-03-28T06:34:19.437Z,32.80
2019-03-28T06:35:21.808Z,35.30
2019-03-28T06:36:19.392Z,34.20
2019-03-28T06:37:19.345Z,34.70
2019-03-28T06:38:19.351Z,34.10
2019-03-28T06:39:19.336Z,35.20
2019-03-28T06:40:19.435Z,33.60
2019-03-28T06:41:19.307Z,34.40
2019-03-28T06:42:19.285Z,32.10
2019-03-28T06:43:19.313Z,32.40
2019-03-28T06:44:19.292Z,33.20
2019-03-28T06:45:19.258Z,34.90
2019-03-28T06:46:19.232Z,32.70
2019-03-28T06:47:21.105Z,34.10
2019-03-28T06:48:19.236Z,35.70
2019-03-28T06:49:19.321Z,33.00
2019-03-28T06:50:19.209Z,32.30
2019-03-28T06:51:19.183Z,33.30
2019-03-28T06:52:19.258Z,32.00
2019-03-28T06:53:19.175Z,34.00
2019-03-28T06:54:19.150Z,32.80
2019-03-28T06:55:19.238Z,33.10
2019-03-28T06:56:19.127Z,32.80
2019-03-28T06:57:19.130Z,30.70
2019-03-28T06:58:19.127Z,33.10
2019-03-28T06:59:19.123Z,35.40
2019-03-28T07:00:19.103Z,30.30
2019-03-28T07:01:19.220Z,32.70
2019-03-28T07:02:21.772Z,34.80
2019-03-28T07:03:19.045Z,33.60
2019-03-28T07:04:19.072Z,31.70
2019-03-28T07:05:19.030Z,34.30
2019-03-28T07:06:19.091Z,35.40
2019-03-28T07:07:19.025Z,34.50
2019-03-28T07:08:19.015Z,37.30
2019-03-28T07:09:18.997Z,32.60
2019-03-28T07:10:19.020Z,33.80
2019-03-28T07:11:18.973Z,33.90
2019-03-28T07:12:18.961Z,33.30
2019-03-28T07:13:18.963Z,31.70
2019-03-28T07:14:18.938Z,32.90
2019-03-28T07:15:18.930Z,33.20
2019-03-28T07:16:21.114Z,36.40
2019-03-28T07:17:18.898Z,33.70
2019-03-28T07:18:18.904Z,33.40
2019-03-28T07:19:18.955Z,31.90
2019-03-28T07:20:18.866Z,30.40
2019-03-28T07:21:18.851Z,32.10
2019-03-28T07:22:18.870Z,31.80
2019-03-28T07:23:18.842Z,32.90
2019-03-28T07:24:18.902Z,32.80
2019-03-28T07:25:18.818Z,31.80
2019-03-28T07:26:18.811Z,33.00
2019-03-28T07:27:18.804Z,36.30
2019-03-28T07:28:18.782Z,32.50
2019-03-28T07:29:18.773Z,31.80
2019-03-28T07:30:19.398Z,34.70
2019-03-28T07:31:18.792Z,30.80
2019-03-28T07:32:18.733Z,34.10
2019-03-28T07:33:18.737Z,34.90
2019-03-28T07:34:18.830Z,34.30
2019-03-28T07:35:18.720Z,31.20
2019-03-28T07:36:18.720Z,33.20
2019-03-28T07:37:18.699Z,31.80
2019-03-28T07:38:18.700Z,32.00
2019-03-28T07:39:19.222Z,32.90
2019-03-28T07:40:19.049Z,38.70
2019-03-28T07:41:18.644Z,36.10
2019-03-28T07:42:18.641Z,32.90
2019-03-28T07:43:18.621Z,31.50
2019-03-28T07:44:18.612Z,29.60
2019-03-28T07:45:18.651Z,32.80
2019-03-28T07:46:18.592Z,32.60
2019-03-28T07:47:18.575Z,31.50
2019-03-28T07:48:18.580Z,34.20
2019-03-28T07:49:18.556Z,32.40
2019-03-28T07:50:18.575Z,32.20
2019-03-28T07:51:18.555Z,32.90
2019-03-28T07:52:20.107Z,30.80
2019-03-28T07:53:19.990Z,30.70
2019-03-28T07:54:18.527Z,31.00
2019-03-28T07:55:18.527Z,32.60
2019-03-28T07:56:18.503Z,35.30
2019-03-28T07:57:18.481Z,34.30
2019-03-28T07:58:18.488Z,34.90
2019-03-28T07:59:18.454Z,30.00
2019-03-28T08:00:18.464Z,36.30
2019-03-28T08:01:18.506Z,32.10
2019-03-28T08:02:18.414Z,32.80
2019-03-28T08:03:18.407Z,29.30
2019-03-28T08:04:18.390Z,29.00
2019-03-28T08:05:18.406Z,30.50
2019-03-28T08:06:18.408Z,35.80
2019-03-28T08:07:18.358Z,36.40
2019-03-28T08:08:18.374Z,33.00
2019-03-28T08:09:18.339Z,35.70
2019-03-28T08:10:18.348Z,37.00
2019-03-28T08:11:18.340Z,35.70
2019-03-28T08:12:22.949Z,36.20
2019-03-28T08:13:19.340Z,35.10
2019-03-28T08:14:18.289Z,37.60
2019-03-28T08:15:18.306Z,36.80
2019-03-28T08:16:18.303Z,37.10
2019-03-28T08:17:18.251Z,36.10
2019-03-28T08:18:18.241Z,39.00
2019-03-28T08:19:18.238Z,35.90
2019-03-28T08:20:18.218Z,35.50
2019-03-28T08:21:18.230Z,34.20
2019-03-28T08:22:18.230Z,35.10
2019-03-28T08:23:18.189Z,34.20
2019-03-28T08:24:18.177Z,35.00
2019-03-28T08:25:18.169Z,36.20
2019-03-28T08:26:18.159Z,34.90
2019-03-28T08:27:18.168Z,36.80
2019-03-28T08:28:18.145Z,36.10
2019-03-28T08:29:18.191Z,35.70
2019-03-28T08:30:19.479Z,34.50
2019-03-28T08:31:18.214Z,34.30
2019-03-28T08:32:18.144Z,30.90
2019-03-28T08:33:18.100Z,34.40
2019-03-28T08:34:18.734Z,31.30
2019-03-28T08:35:18.061Z,31.40
2019-03-28T08:36:18.055Z,32.00
2019-03-28T08:37:18.048Z,31.30
2019-03-28T08:38:18.034Z,30.30
2019-03-28T08:39:18.201Z,30.00
2019-03-28T08:40:18.038Z,29.20
2019-03-28T08:41:18.016Z,29.20
2019-03-28T08:42:17.999Z,28.70
2019-03-28T08:43:17.990Z,29.60
2019-03-28T08:44:17.996Z,28.40
2019-03-28T08:45:17.985Z,30.10
2019-03-28T08:46:17.968Z,27.60
2019-03-28T08:47:17.952Z,27.00
2019-03-28T08:48:17.927Z,29.30
2019-03-28T08:49:17.916Z,28.10
2019-03-28T08:50:17.905Z,30.20
2019-03-28T08:51:17.915Z,28.80
2019-03-28T08:52:17.909Z,28.30
2019-03-28T08:53:17.880Z,28.30
2019-03-28T08:54:17.972Z,27.00
2019-03-28T08:55:17.872Z,26.80
2019-03-28T08:56:17.860Z,27.30
2019-03-28T08:57:17.856Z,27.00
2019-03-28T08:58:17.841Z,29.20
2019-03-28T08:59:17.822Z,25.90
2019-03-28T09:00:32.338Z,26.90
2019-03-28T09:01:18.805Z,30.80
2019-03-28T09:02:17.775Z,30.80
2019-03-28T09:03:17.797Z,28.30
2019-03-28T09:04:17.786Z,28.80
2019-03-28T09:05:17.977Z,31.30
2019-03-28T09:06:17.742Z,29.00
2019-03-28T09:07:17.740Z,27.20
2019-03-28T09:08:17.711Z,24.20
2019-03-28T09:09:20.923Z,25.60
2019-03-28T09:10:17.692Z,22.50
2019-03-28T09:11:17.814Z,22.80
2019-03-28T09:12:17.720Z,22.00
2019-03-28T09:13:17.678Z,24.30
2019-03-28T09:14:17.674Z,21.20
2019-03-28T09:15:17.632Z,22.60
2019-03-28T09:16:17.676Z,21.60
2019-03-28T09:17:17.659Z,26.50
2019-03-28T09:18:17.609Z,23.10
2019-03-28T09:19:17.711Z,21.80
2019-03-28T09:20:17.600Z,22.20
2019-03-28T09:21:17.601Z,25.00
2019-03-28T09:22:17.619Z,21.20
2019-03-28T09:23:17.583Z,23.20
2019-03-28T09:24:17.589Z,22.00
2019-03-28T09:25:17.524Z,21.70
2019-03-28T09:26:17.557Z,21.80
2019-03-28T09:27:17.504Z,20.80
2019-03-28T09:28:17.506Z,22.20
2019-03-28T09:29:17.531Z,20.60
2019-03-28T09:30:17.469Z,20.60
2019-03-28T09:31:20.320Z,20.20
2019-03-28T09:32:17.464Z,22.90
2019-03-28T09:33:17.438Z,19.30
2019-03-28T09:34:17.462Z,19.20
2019-03-28T09:35:17.453Z,20.20
2019-03-28T09:36:17.430Z,19.60
2019-03-28T09:37:17.432Z,19.50
2019-03-28T09:38:17.402Z,18.30
2019-03-28T09:39:17.390Z,18.70
2019-03-28T09:40:17.381Z,19.40
2019-03-28T09:41:17.450Z,21.20
2019-03-28T09:42:17.371Z,20.20
2019-03-28T09:43:17.357Z,18.50
2019-03-28T09:44:17.375Z,19.20
2019-03-28T09:45:17.319Z,21.50
2019-03-28T09:46:17.389Z,22.30
2019-03-28T09:47:17.315Z,22.50
2019-03-28T09:48:17.280Z,21.30
2019-03-28T09:49:17.446Z,19.60
2019-03-28T09:50:17.264Z,19.30
2019-03-28T09:51:17.254Z,18.50
2019-03-28T09:52:17.250Z,18.40
2019-03-28T09:53:17.259Z,15.10
2019-03-28T09:54:17.214Z,18.90
2019-03-28T09:55:18.892Z,20.30
2019-03-28T09:56:17.194Z,22.40
2019-03-28T09:57:17.182Z,20.50
2019-03-28T09:58:17.192Z,20.50
2019-03-28T09:59:17.280Z,18.10
2019-03-28T10:00:17.163Z,19.00
2019-03-28T10:01:17.164Z,18.50
2019-03-28T10:02:17.138Z,17.10
2019-03-28T10:03:17.130Z,19.80
2019-03-28T10:04:17.138Z,19.40
2019-03-28T10:05:17.199Z,22.70
2019-03-28T10:06:17.090Z,23.00
2019-03-28T10:07:17.080Z,24.40
2019-03-28T10:08:17.078Z,23.20
2019-03-28T10:09:17.050Z,22.50
2019-03-28T10:10:17.044Z,21.40
2019-03-28T10:11:17.114Z,20.40
2019-03-28T10:12:17.023Z,17.40
2019-03-28T10:13:17.027Z,17.00
2019-03-28T10:14:17.000Z,17.10
2019-03-28T10:15:17.863Z,17.00
2019-03-28T10:16:17.007Z,18.40
2019-03-28T10:17:16.977Z,17.70
2019-03-28T10:18:16.982Z,18.70
2019-03-28T10:19:16.993Z,18.70
2019-03-28T10:20:16.938Z,17.60
2019-03-28T10:21:16.932Z,17.90
2019-03-28T10:22:16.916Z,16.20
2019-03-28T10:23:16.921Z,17.30
2019-03-28T10:24:16.917Z,15.60
2019-03-28T10:25:16.880Z,15.70
2019-03-28T10:26:16.871Z,15.90
2019-03-28T10:27:19.150Z,17.00
2019-03-28T10:28:16.854Z,17.00
2019-03-28T10:29:16.906Z,16.40
2019-03-28T10:30:16.859Z,16.90
2019-03-28T10:31:17.118Z,16.00
2019-03-28T10:32:16.823Z,15.60
2019-03-28T10:33:16.921Z,14.80
2019-03-28T10:34:16.791Z,14.30
2019-03-28T10:35:16.783Z,15.40
2019-03-28T10:36:16.778Z,16.00
2019-03-28T10:37:16.750Z,16.20
2019-03-28T10:38:16.781Z,15.40
2019-03-28T10:39:16.787Z,15.20
2019-03-28T10:40:16.724Z,15.50
2019-03-28T10:41:16.726Z,15.50
2019-03-28T10:42:16.698Z,16.00
2019-03-28T10:43:16.702Z,15.40
2019-03-28T10:44:16.695Z,19.60
2019-03-28T10:45:16.708Z,17.60
2019-03-28T10:46:16.672Z,16.00
2019-03-28T10:47:16.670Z,16.40
2019-03-28T10:48:16.654Z,15.70
2019-03-28T10:49:16.713Z,16.10
2019-03-28T10:50:16.623Z,15.40
2019-03-28T10:51:16.644Z,14.90
2019-03-28T10:52:16.589Z,14.60
2019-03-28T10:53:16.617Z,15.40
2019-03-28T10:54:20.361Z,17.30
2019-03-28T10:55:16.876Z,18.10
2019-03-28T10:56:21.890Z,17.40
2019-03-28T10:57:29.402Z,17.50
2019-03-28T10:58:19.309Z,16.60
2019-03-28T10:59:23.309Z,15.80
2019-03-28T11:00:23.848Z,15.70
2019-03-28T11:01:32.404Z,14.50
2019-03-28T11:02:17.480Z,15.40
2019-03-28T11:03:16.490Z,16.30
2019-03-28T11:04:16.494Z,16.20
2019-03-28T11:05:16.453Z,15.40
2019-03-28T11:06:16.516Z,15.20
2019-03-28T11:07:16.431Z,12.90
2019-03-28T11:08:16.627Z,16.20
2019-03-28T11:09:16.413Z,14.20
2019-03-28T11:10:16.535Z,16.00
2019-03-28T11:11:16.397Z,16.50
2019-03-28T11:12:16.388Z,16.40
2019-03-28T11:13:16.364Z,17.90
2019-03-28T11:14:16.386Z,17.60
2019-03-28T11:15:16.360Z,17.50
2019-03-28T11:16:16.359Z,17.00
2019-03-28T11:17:16.324Z,16.90
2019-03-28T11:18:16.331Z,16.60
2019-03-28T11:19:17.529Z,17.30
2019-03-28T11:20:16.302Z,17.20
2019-03-28T11:21:16.289Z,19.10
2019-03-28T11:22:16.270Z,19.90
2019-03-28T11:23:16.285Z,17.90
2019-03-28T11:24:16.249Z,18.90
2019-03-28T11:25:16.268Z,17.70
2019-03-28T11:26:16.224Z,18.00
2019-03-28T11:27:16.237Z,19.10
2019-03-28T11:28:16.227Z,18.10
2019-03-28T11:29:16.269Z,19.30
2019-03-28T11:30:18.341Z,19.40
2019-03-28T11:31:16.204Z,17.80
2019-03-28T11:32:16.157Z,18.30
2019-03-28T11:33:16.208Z,17.80
2019-03-28T11:34:16.150Z,17.00
2019-03-28T11:35:16.125Z,18.90
2019-03-28T11:36:16.206Z,18.00
2019-03-28T11:37:26.152Z,19.50
2019-03-28T11:38:17.112Z,20.50
2019-03-28T11:39:16.124Z,19.50
2019-03-28T11:40:16.102Z,19.60
2019-03-28T11:41:16.064Z,21.20
2019-03-28T11:42:16.109Z,21.00
2019-03-28T11:43:16.050Z,20.50
2019-03-28T11:44:16.049Z,21.00
2019-03-28T11:45:16.025Z,19.70
2019-03-28T11:46:16.011Z,21.00
2019-03-28T11:47:16.020Z,19.60
2019-03-28T11:48:16.004Z,20.30
2019-03-28T11:49:16.094Z,19.40
2019-03-28T11:50:17.196Z,18.70
2019-03-28T11:51:15.961Z,17.60
2019-03-28T11:52:16.269Z,19.10
2019-03-28T11:53:15.939Z,19.30
2019-03-28T11:54:15.972Z,17.80
2019-03-28T11:55:15.910Z,18.50
2019-03-28T11:56:15.909Z,19.30
2019-03-28T11:57:16.117Z,20.80
2019-03-28T11:58:15.954Z,18.90
2019-03-28T11:59:15.899Z,19.60
2019-03-28T12:00:15.859Z,18.30
2019-03-28T12:01:15.999Z,19.90
2019-03-28T12:02:20.177Z,20.90
2019-03-28T12:03:15.828Z,18.70
2019-03-28T12:04:15.897Z,19.90
2019-03-28T12:05:15.831Z,20.20
2019-03-28T12:06:15.808Z,19.90
2019-03-28T12:07:15.786Z,19.30
2019-03-28T12:08:15.787Z,21.00
2019-03-28T12:09:15.786Z,21.30
2019-03-28T12:10:15.837Z,19.50
2019-03-28T12:11:15.771Z,21.80
2019-03-28T12:12:15.735Z,21.50
2019-03-28T12:13:15.930Z,21.80
2019-03-28T12:14:15.873Z,22.00
2019-03-28T12:15:15.710Z,22.70
2019-03-28T12:16:15.703Z,23.20
2019-03-28T12:17:15.706Z,25.40
2019-03-28T12:18:15.669Z,24.70
2019-03-28T12:19:17.716Z,24.90
2019-03-28T12:20:15.642Z,24.20
2019-03-28T12:21:15.654Z,24.50
2019-03-28T12:22:15.655Z,24.30
2019-03-28T12:23:15.606Z,24.00
2019-03-28T12:24:15.654Z,23.60
2019-03-28T12:25:15.586Z,25.90
2019-03-28T12:26:15.575Z,23.70
2019-03-28T12:27:15.585Z,27.30
2019-03-28T12:28:15.565Z,28.30
2019-03-28T12:29:15.629Z,29.80
2019-03-28T12:30:16.374Z,31.40
2019-03-28T12:31:15.536Z,29.20
2019-03-28T12:32:15.510Z,31.40
2019-03-28T12:33:15.512Z,28.70
2019-03-28T12:34:15.520Z,27.40
2019-03-28T12:35:15.556Z,30.70
2019-03-28T12:36:15.482Z,29.50
2019-03-28T12:37:15.467Z,28.90
2019-03-28T12:38:15.457Z,27.40
2019-03-28T12:39:15.858Z,27.70
2019-03-28T12:40:15.451Z,26.20
2019-03-28T12:41:15.417Z,27.20
2019-03-28T12:42:15.416Z,26.90
2019-03-28T12:43:15.421Z,26.20
2019-03-28T12:44:15.416Z,26.20
2019-03-28T12:45:15.376Z,26.20
2019-03-28T12:46:15.386Z,30.50
2019-03-28T12:47:15.365Z,26.50
2019-03-28T12:48:15.413Z,26.70
2019-03-28T12:49:15.353Z,26.00
2019-03-28T12:50:15.335Z,26.30
2019-03-28T12:51:15.310Z,26.40
2019-03-28T12:52:15.305Z,25.90